createdAt,value
2022-10-23T00:00:28.285Z,10.58
2022-10-23T00:03:30.856Z,10.54
2022-10-23T00:06:34.244Z,10.58
2022-10-23T00:09:36.714Z,10.58
2022-10-23T00:12:39.295Z,10.54
2022-10-23T00:15:42.031Z,10.60
2022-10-23T00:18:45.698Z,10.63
2022-10-23T00:21:48.353Z,10.74
2022-10-23T00:24:50.628Z,10.84
2022-10-23T00:27:53.224Z,10.97
2022-10-23T00:30:55.573Z,10.95
2022-10-23T00:33:58.123Z,10.85
2022-10-23T00:37:00.247Z,10.73
2022-10-23T00:40:04.656Z,10.68
2022-10-23T00:43:13.935Z,10.75
2022-10-23T00:46:16.345Z,10.77
2022-10-23T00:49:20.218Z,10.78
2022-10-23T00:52:22.820Z,10.75
2022-10-23T00:55:26.738Z,10.72
2022-10-23T00:58:29.508Z,10.80
2022-10-23T01:01:32.244Z,10.91
2022-10-23T01:04:36.370Z,10.98
2022-10-23T01:07:49.444Z,10.92
2022-10-23T01:11:16.488Z,10.89
2022-10-23T01:15:11.206Z,10.85
2022-10-23T01:18:31.909Z,10.87
2022-10-23T01:21:54.333Z,10.98
2022-10-23T01:25:00.928Z,10.93
2022-10-23T01:28:08.911Z,10.88
2022-10-23T01:31:17.760Z,10.87
2022-10-23T01:34:29.721Z,10.89
2022-10-23T01:38:05.462Z,10.94
2022-10-23T01:41:14.726Z,10.87
2022-10-23T01:44:28.376Z,10.88
2022-10-23T01:47:35.387Z,10.79
2022-10-23T01:50:41.196Z,10.68
2022-10-23T01:53:47.359Z,10.77
2022-10-23T01:56:52.432Z,10.74
2022-10-23T02:00:05.119Z,10.79
2022-10-23T02:03:12.483Z,10.94
2022-10-23T02:06:15.147Z,10.90
2022-10-23T02:09:17.464Z,10.97
2022-10-23T02:12:49.597Z,10.80
2022-10-23T02:16:16.708Z,10.59
2022-10-23T02:19:29.325Z,10.60
2022-10-23T02:22:54.350Z,10.53
2022-10-23T02:26:02.504Z,10.41
2022-10-23T02:29:10.983Z,10.42
2022-10-23T02:32:15.753Z,10.40
2022-10-23T02:35:21.081Z,10.42
2022-10-23T02:38:36.814Z,10.38
2022-10-23T02:41:45.253Z,10.38
2022-10-23T02:44:55.667Z,10.27
2022-10-23T02:48:04.565Z,10.11
2022-10-23T02:51:18.307Z,9.90
2022-10-23T02:54:39.313Z,9.70
2022-10-23T02:58:04.998Z,9.79
2022-10-23T03:01:16.120Z,9.71
2022-10-23T03:04:21.384Z,9.70
2022-10-23T03:07:26.537Z,9.80
2022-10-23T03:10:33.461Z,9.81
2022-10-23T03:13:36.018Z,9.85
2022-10-23T03:16:38.185Z,9.81
2022-10-23T03:19:40.670Z,9.78
2022-10-23T03:22:43.059Z,9.80
2022-10-23T03:25:45.823Z,9.72
2022-10-23T03:28:56.018Z,9.74
2022-10-23T03:31:59.000Z,9.55
2022-10-23T03:35:01.345Z,9.40
2022-10-23T03:38:04.007Z,9.28
2022-10-23T03:41:06.271Z,9.39
2022-10-23T03:44:08.772Z,9.50
2022-10-23T03:47:12.072Z,9.24
2022-10-23T03:50:14.840Z,9.21
2022-10-23T03:53:17.012Z,9.29
2022-10-23T03:56:19.528Z,9.29
2022-10-23T03:59:21.735Z,9.43
2022-10-23T04:02:24.691Z,9.20
2022-10-23T04:05:27.529Z,8.99
2022-10-23T04:08:29.873Z,9.01
2022-10-23T04:11:33.065Z,8.96
2022-10-23T04:14:35.357Z,9.02
2022-10-23T04:17:38.619Z,9.02
2022-10-23T04:20:40.928Z,8.79
2022-10-23T04:23:43.853Z,8.73
2022-10-23T04:26:46.313Z,8.74
2022-10-23T04:29:49.299Z,8.78
2022-10-23T04:32:52.220Z,8.55
2022-10-23T04:35:54.911Z,8.79
2022-10-23T04:38:57.272Z,8.89
2022-10-23T04:42:00.139Z,8.84
2022-10-23T04:45:02.363Z,8.66
2022-10-23T04:48:05.089Z,8.64
2022-10-23T04:51:11.115Z,8.51
2022-10-23T04:54:14.506Z,8.69
2022-10-23T04:57:17.222Z,8.80
2022-10-23T05:00:20.904Z,8.63
2022-10-23T05:03:24.909Z,8.72
2022-10-23T05:06:27.568Z,8.89
2022-10-23T05:09:30.181Z,8.86
2022-10-23T05:12:34.633Z,8.78
2022-10-23T05:15:38.274Z,8.50
2022-10-23T05:18:47.735Z,8.45
2022-10-23T05:21:55.934Z,8.36
2022-10-23T05:25:02.149Z,8.40
2022-10-23T05:28:05.676Z,8.46
2022-10-23T05:31:08.374Z,8.37
2022-10-23T05:34:15.157Z,8.31
2022-10-23T05:37:18.202Z,8.43
2022-10-23T05:40:20.820Z,8.36
2022-10-23T05:43:26.017Z,8.04
2022-10-23T05:46:29.007Z,8.00
2022-10-23T05:49:31.942Z,8.20
2022-10-23T05:52:42.332Z,8.46
2022-10-23T05:55:45.436Z,8.76
2022-10-23T05:58:47.678Z,8.87
2022-10-23T06:01:50.539Z,9.23
2022-10-23T06:04:53.738Z,9.55
2022-10-23T06:08:00.296Z,9.73
2022-10-23T06:11:11.174Z,9.81
2022-10-23T06:14:13.588Z,9.93
2022-10-23T06:17:16.810Z,9.95
2022-10-23T06:20:19.835Z,10.03
2022-10-23T06:23:26.449Z,10.21
2022-10-23T06:26:29.916Z,10.13
2022-10-23T06:29:32.988Z,10.21
2022-10-23T06:32:36.036Z,10.34
2022-10-23T06:35:39.406Z,10.83
2022-10-23T06:38:41.613Z,10.99
2022-10-23T06:41:45.410Z,11.06
2022-10-23T06:44:52.023Z,11.21
2022-10-23T06:47:58.423Z,11.49
2022-10-23T06:51:08.394Z,11.36
2022-10-23T06:54:11.515Z,11.30
2022-10-23T06:57:14.537Z,11.52
2022-10-23T07:00:17.317Z,11.11
2022-10-23T07:03:21.246Z,11.32
2022-10-23T07:06:23.737Z,11.69
2022-10-23T07:09:26.198Z,11.78
2022-10-23T07:12:31.152Z,11.82
2022-10-23T07:15:36.193Z,11.90
2022-10-23T07:18:39.197Z,12.15
2022-10-23T07:21:44.300Z,12.23
2022-10-23T07:24:47.712Z,12.37
2022-10-23T07:27:50.483Z,12.43
2022-10-23T07:31:02.406Z,12.40
2022-10-23T07:34:06.457Z,12.48
2022-10-23T07:37:09.525Z,12.67
2022-10-23T07:40:12.496Z,12.55
2022-10-23T07:43:17.288Z,12.41
2022-10-23T07:46:19.471Z,12.48
2022-10-23T07:49:23.173Z,12.62
2022-10-23T07:52:25.580Z,12.84
2022-10-23T07:55:31.172Z,13.02
2022-10-23T07:58:33.806Z,13.18
2022-10-23T08:01:38.727Z,13.13
2022-10-23T08:04:41.292Z,13.09
2022-10-23T08:07:45.301Z,13.40
2022-10-23T08:10:49.704Z,13.62
2022-10-23T08:13:56.123Z,13.80
2022-10-23T08:16:59.522Z,13.77
2022-10-23T08:20:03.539Z,13.72
2022-10-23T08:23:07.509Z,13.86
2022-10-23T08:26:10.169Z,13.62
2022-10-23T08:29:12.669Z,13.56
2022-10-23T08:32:15.328Z,13.59
2022-10-23T08:35:20.082Z,13.76
2022-10-23T08:38:23.241Z,13.82
2022-10-23T08:41:32.387Z,13.66
2022-10-23T08:44:50.078Z,13.69
2022-10-23T08:47:57.194Z,13.71
2022-10-23T08:51:13.572Z,13.59
2022-10-23T08:54:24.317Z,13.69
2022-10-23T08:57:34.601Z,13.84
2022-10-23T09:00:37.205Z,13.81
2022-10-23T09:03:39.391Z,13.96
2022-10-23T09:06:55.990Z,14.16
2022-10-23T09:10:25.064Z,14.11
2022-10-23T09:13:55.878Z,14.30
2022-10-23T09:17:16.409Z,14.47
2022-10-23T09:20:22.588Z,14.45
2022-10-23T09:23:24.838Z,14.50
2022-10-23T09:26:27.426Z,14.77
2022-10-23T09:29:32.889Z,14.60
2022-10-23T09:32:38.584Z,14.82
2022-10-23T09:35:53.079Z,15.00
2022-10-23T09:38:58.938Z,15.03
2022-10-23T09:42:13.276Z,15.21
2022-10-23T09:45:27.747Z,15.16
2022-10-23T09:48:31.113Z,15.33
2022-10-23T09:51:34.472Z,15.31
2022-10-23T09:54:39.676Z,15.48
2022-10-23T09:57:44.873Z,15.48
2022-10-23T10:00:50.169Z,15.75
2022-10-23T10:03:55.811Z,15.85
2022-10-23T10:06:59.489Z,15.89
2022-10-23T10:10:02.006Z,15.77
2022-10-23T10:13:20.511Z,15.90
2022-10-23T10:16:35.177Z,15.94
2022-10-23T10:20:20.866Z,15.96
2022-10-23T10:23:30.814Z,15.97
2022-10-23T10:26:57.471Z,16.00
2022-10-23T10:30:05.772Z,15.91
2022-10-23T10:33:17.170Z,16.01
2022-10-23T10:36:55.472Z,15.71
2022-10-23T10:40:06.580Z,15.80
2022-10-23T10:43:44.384Z,15.94
2022-10-23T10:47:15.881Z,15.83
2022-10-23T10:50:30.490Z,15.92
2022-10-23T10:53:55.069Z,16.07
2022-10-23T10:57:00.125Z,15.97
2022-10-23T11:00:25.940Z,15.96
2022-10-23T11:03:39.196Z,15.72
2022-10-23T11:06:46.355Z,15.96
2022-10-23T11:09:49.873Z,15.88
2022-10-23T11:12:52.455Z,15.79
2022-10-23T11:16:04.567Z,15.99
2022-10-23T11:19:27.481Z,15.88
2022-10-23T11:22:37.800Z,15.88
2022-10-23T11:25:55.153Z,15.56
2022-10-23T11:29:35.381Z,15.61
2022-10-23T11:33:13.871Z,15.63
2022-10-23T11:36:17.893Z,15.83
2022-10-23T11:39:29.585Z,15.92
2022-10-23T11:42:37.096Z,15.97
2022-10-23T11:45:40.766Z,15.94
2022-10-23T11:48:44.317Z,16.09
2022-10-23T11:51:46.475Z,16.28
2022-10-23T11:54:48.939Z,16.00
2022-10-23T11:58:23.086Z,15.80
2022-10-23T12:01:36.319Z,15.80
2022-10-23T12:04:46.653Z,15.80
2022-10-23T12:07:55.872Z,15.93
2022-10-23T12:10:58.409Z,15.99
2022-10-23T12:14:00.627Z,16.14
2022-10-23T12:17:03.685Z,16.24
2022-10-23T12:20:08.741Z,16.07
2022-10-23T12:23:27.302Z,16.27
2022-10-23T12:26:51.619Z,16.51
2022-10-23T12:30:01.378Z,16.50
2022-10-23T12:33:24.175Z,16.39
2022-10-23T12:36:26.544Z,16.40
2022-10-23T12:39:30.945Z,16.42
2022-10-23T12:42:33.910Z,16.12
2022-10-23T12:45:40.052Z,16.08
2022-10-23T12:48:50.200Z,16.07
2022-10-23T12:52:16.757Z,16.12
2022-10-23T12:55:19.445Z,16.17
2022-10-23T12:58:24.463Z,16.19
2022-10-23T13:01:34.787Z,16.25
2022-10-23T13:04:37.866Z,16.22
2022-10-23T13:07:46.365Z,16.21
2022-10-23T13:10:50.242Z,16.34
2022-10-23T13:13:53.740Z,16.33
2022-10-23T13:17:05.010Z,16.25
2022-10-23T13:20:22.269Z,15.96
2022-10-23T13:23:35.001Z,15.91
2022-10-23T13:26:47.274Z,15.78
2022-10-23T13:29:49.387Z,15.71
2022-10-23T13:32:51.903Z,15.76
2022-10-23T13:36:13.421Z,15.69
2022-10-23T13:39:16.607Z,15.82
2022-10-23T13:42:18.805Z,15.87
2022-10-23T13:45:26.696Z,16.05
2022-10-23T13:48:31.888Z,16.11
2022-10-23T13:51:42.803Z,16.12
2022-10-23T13:54:45.474Z,16.13
2022-10-23T13:57:47.967Z,16.06
2022-10-23T14:00:52.564Z,16.00
2022-10-23T14:03:56.887Z,16.03
2022-10-23T14:06:59.032Z,15.94
2022-10-23T14:10:01.576Z,15.99
2022-10-23T14:13:03.692Z,15.97
2022-10-23T14:16:08.150Z,16.02
2022-10-23T14:19:11.779Z,16.01
2022-10-23T14:22:14.332Z,15.79
2022-10-23T14:25:16.864Z,15.87
2022-10-23T14:28:19.385Z,15.72
2022-10-23T14:31:21.933Z,15.70
2022-10-23T14:34:24.423Z,15.78
2022-10-23T14:37:26.536Z,15.61
2022-10-23T14:40:29.018Z,15.59
2022-10-23T14:43:31.159Z,15.58
2022-10-23T14:46:37.547Z,15.52
2022-10-23T14:49:40.402Z,15.56
2022-10-23T14:52:42.951Z,15.52
2022-10-23T14:55:45.092Z,15.45
2022-10-23T14:58:47.580Z,15.40
2022-10-23T15:01:49.848Z,15.36
2022-10-23T15:04:52.426Z,15.34
2022-10-23T15:07:55.279Z,15.31
2022-10-23T15:11:01.171Z,15.30
2022-10-23T15:14:03.310Z,15.33
2022-10-23T15:17:05.829Z,15.38
2022-10-23T15:20:08.818Z,15.36
2022-10-23T15:23:11.282Z,15.33
2022-10-23T15:26:20.345Z,15.30
2022-10-23T15:29:23.241Z,15.24
2022-10-23T15:32:25.367Z,15.20
2022-10-23T15:38:30.052Z,14.97
2022-10-23T15:41:34.239Z,15.03
2022-10-23T15:44:36.451Z,15.06
2022-10-23T15:47:38.892Z,15.07
2022-10-23T15:50:41.070Z,15.08
2022-10-23T15:53:43.632Z,15.02
2022-10-23T15:56:48.426Z,15.01
2022-10-23T15:59:51.186Z,15.03
2022-10-23T16:02:53.415Z,15.03
2022-10-23T16:05:55.982Z,15.01
2022-10-23T16:08:58.278Z,14.97
2022-10-23T16:12:00.804Z,14.95
2022-10-23T16:15:03.037Z,14.95
2022-10-23T16:18:06.523Z,14.96
2022-10-23T16:21:17.807Z,14.94
2022-10-23T16:24:20.416Z,14.86
2022-10-23T16:27:22.605Z,14.88
2022-10-23T16:30:25.075Z,14.93
2022-10-23T16:33:27.414Z,14.97
2022-10-23T16:36:29.859Z,14.91
2022-10-23T16:39:33.913Z,14.94
2022-10-23T16:42:49.069Z,15.00
2022-10-23T16:46:07.444Z,14.99
2022-10-23T16:49:09.965Z,14.93
2022-10-23T16:52:12.156Z,14.98
2022-10-23T16:55:14.820Z,15.08
2022-10-23T16:58:16.966Z,15.11
2022-10-23T17:01:21.975Z,15.17
2022-10-23T17:04:24.261Z,15.23
2022-10-23T17:07:26.862Z,15.22
2022-10-23T17:10:29.043Z,15.25
2022-10-23T17:13:31.860Z,15.36
2022-10-23T17:16:38.252Z,15.29
2022-10-23T17:19:46.020Z,15.26
2022-10-23T17:22:48.603Z,15.25
2022-10-23T17:25:51.088Z,15.25
2022-10-23T17:28:53.259Z,15.22
2022-10-23T17:31:55.772Z,15.31
2022-10-23T17:34:57.974Z,15.30
2022-10-23T17:38:00.666Z,15.31
2022-10-23T17:41:03.277Z,15.42
2022-10-23T17:44:06.082Z,15.23
2022-10-23T17:47:08.289Z,15.24
2022-10-23T17:50:12.288Z,15.21
2022-10-23T17:53:14.444Z,15.19
2022-10-23T17:56:22.751Z,15.13
2022-10-23T17:59:24.863Z,15.11
2022-10-23T18:02:27.528Z,15.09
2022-10-23T18:05:33.125Z,15.05
2022-10-23T18:08:36.832Z,15.03
2022-10-23T18:11:46.908Z,15.05
2022-10-23T18:14:50.175Z,15.20
2022-10-23T18:17:52.727Z,15.09
2022-10-23T18:20:56.975Z,15.04
2022-10-23T18:24:00.506Z,15.10
2022-10-23T18:27:02.675Z,15.03
2022-10-23T18:30:06.397Z,14.99
2022-10-23T18:33:08.589Z,15.02
2022-10-23T18:36:32.109Z,14.97
2022-10-23T18:39:34.265Z,14.97
2022-10-23T18:42:36.749Z,14.97
2022-10-23T18:45:42.378Z,14.96
2022-10-23T18:48:45.689Z,14.93
2022-10-23T18:51:49.854Z,14.94
2022-10-23T18:54:52.402Z,14.96
2022-10-23T18:57:54.580Z,14.90
2022-10-23T19:00:57.214Z,14.94
2022-10-23T19:04:01.279Z,14.94
2022-10-23T19:07:03.921Z,14.92
2022-10-23T19:10:06.771Z,14.94
2022-10-23T19:13:09.529Z,14.89
2022-10-23T19:16:33.323Z,14.91
2022-10-23T19:19:41.056Z,14.91
2022-10-23T19:22:47.178Z,14.90
2022-10-23T19:25:49.903Z,14.91
2022-10-23T19:31:55.608Z,14.84
2022-10-23T19:34:58.990Z,14.91
2022-10-23T19:38:01.510Z,15.02
2022-10-23T19:41:03.941Z,14.90
2022-10-23T19:44:06.391Z,14.82
2022-10-23T19:47:08.544Z,14.84
2022-10-23T19:50:11.056Z,14.84
2022-10-23T19:53:13.198Z,14.81
2022-10-23T19:56:15.706Z,14.84
2022-10-23T19:59:18.336Z,14.81
2022-10-23T20:02:21.119Z,14.79
2022-10-23T20:05:23.774Z,14.77
2022-10-23T20:08:25.952Z,14.81
2022-10-23T20:11:30.669Z,14.77
2022-10-23T20:14:33.445Z,14.79
2022-10-23T20:17:36.115Z,14.82
2022-10-23T20:20:42.527Z,14.76
2022-10-23T20:23:45.285Z,14.75
2022-10-23T20:26:52.324Z,14.74
2022-10-23T20:29:54.847Z,14.68
2022-10-23T20:32:56.999Z,14.65
2022-10-23T20:35:59.504Z,14.67
2022-10-23T20:39:04.379Z,14.69
2022-10-23T20:42:07.629Z,14.62
2022-10-23T20:45:10.430Z,14.57
2022-10-23T20:48:12.912Z,14.54
2022-10-23T20:51:20.369Z,14.55
2022-10-23T20:54:25.149Z,14.57
2022-10-23T20:57:27.641Z,14.56
2022-10-23T21:00:30.224Z,14.52
2022-10-23T21:03:33.019Z,14.53
2022-10-23T21:06:51.594Z,14.51
2022-10-23T21:09:57.651Z,14.46
2022-10-23T21:13:00.178Z,14.47
2022-10-23T21:16:18.841Z,14.46
2022-10-23T21:19:21.290Z,14.48
2022-10-23T21:22:23.494Z,14.43
2022-10-23T21:25:25.975Z,14.40
2022-10-23T21:28:28.379Z,14.38
2022-10-23T21:31:30.920Z,14.43
2022-10-23T21:34:33.101Z,14.52
2022-10-23T21:37:37.652Z,14.49
2022-10-23T21:40:39.844Z,14.48
2022-10-23T21:43:42.340Z,14.44
2022-10-23T21:46:44.491Z,14.47
2022-10-23T21:49:47.051Z,14.46
2022-10-23T21:52:52.784Z,14.52
2022-10-23T21:56:01.051Z,14.52
2022-10-23T22:02:09.383Z,14.50
2022-10-23T22:05:12.015Z,14.47
2022-10-23T22:08:14.192Z,14.44
2022-10-23T22:11:16.817Z,14.44
2022-10-23T22:14:19.388Z,14.51
2022-10-23T22:17:21.986Z,14.48
2022-10-23T22:20:24.191Z,14.47
2022-10-23T22:23:26.687Z,14.44
2022-10-23T22:26:36.630Z,14.49
2022-10-23T22:29:39.140Z,14.52
2022-10-23T22:32:41.407Z,14.52
2022-10-23T22:35:44.043Z,14.52
2022-10-23T22:38:46.936Z,14.49
2022-10-23T22:41:49.640Z,14.48
2022-10-23T22:44:51.792Z,14.49
2022-10-23T22:47:54.295Z,14.63
2022-10-23T22:50:56.548Z,14.62
2022-10-23T22:53:59.664Z,14.58
2022-10-23T22:57:01.853Z,14.52
2022-10-23T23:00:06.920Z,14.43
2022-10-23T23:03:11.512Z,14.32
2022-10-23T23:06:14.577Z,14.22
2022-10-23T23:09:18.130Z,14.17
2022-10-23T23:12:20.984Z,14.06
2022-10-23T23:15:23.102Z,14.02
2022-10-23T23:18:26.126Z,14.01
2022-10-23T23:21:29.919Z,13.97
2022-10-23T23:24:32.572Z,13.94
2022-10-23T23:27:34.768Z,13.93
2022-10-23T23:30:37.417Z,13.97
2022-10-23T23:33:39.653Z,13.98
2022-10-23T23:36:49.255Z,14.11
2022-10-23T23:39:54.717Z,14.17
2022-10-23T23:42:57.203Z,14.20
2022-10-23T23:45:59.512Z,14.19
2022-10-23T23:49:02.124Z,14.27
2022-10-23T23:52:04.447Z,14.32
2022-10-23T23:55:08.043Z,14.28
2022-10-23T23:58:11.975Z,14.26
